createdAt,value
2018-07-24T00:01:33.261Z,4.20
2018-07-24T00:04:01.579Z,4.28
2018-07-24T00:06:29.925Z,4.75
2018-07-24T00:08:58.285Z,4.55
2018-07-24T00:11:26.623Z,4.78
2018-07-24T00:13:54.960Z,4.90
2018-07-24T00:16:23.362Z,5.03
2018-07-24T00:18:51.697Z,4.70
2018-07-24T00:21:19.994Z,4.83
2018-07-24T00:23:48.316Z,5.08
2018-07-24T00:26:16.608Z,4.60
2018-07-24T00:28:44.954Z,5.00
2018-07-24T00:31:13.286Z,4.85
2018-07-24T00:33:41.661Z,5.20
2018-07-24T00:36:10.016Z,4.90
2018-07-24T00:38:38.373Z,5.45
2018-07-24T00:41:06.792Z,5.35
2018-07-24T00:43:35.158Z,5.42
2018-07-24T00:46:03.449Z,4.92
2018-07-24T00:48:31.772Z,5.35
2018-07-24T00:51:00.150Z,5.47
2018-07-24T00:53:28.594Z,5.45
2018-07-24T00:55:57.062Z,5.53
2018-07-24T00:58:25.382Z,5.12
2018-07-24T01:00:53.703Z,5.60
2018-07-24T01:03:22.043Z,5.65
2018-07-24T01:05:50.579Z,5.80
2018-07-24T01:08:18.876Z,6.03
2018-07-24T01:10:47.212Z,6.00
2018-07-24T01:13:15.517Z,5.80
2018-07-24T01:15:43.860Z,5.70
2018-07-24T01:18:12.254Z,5.90
2018-07-24T01:20:40.615Z,6.30
2018-07-24T01:23:08.980Z,6.67
2018-07-24T01:25:37.325Z,6.60
2018-07-24T01:28:05.707Z,6.60
2018-07-24T01:30:34.040Z,6.80
2018-07-24T01:33:02.410Z,6.60
2018-07-24T01:35:30.728Z,6.60
2018-07-24T01:37:59.058Z,6.53
2018-07-24T01:40:27.416Z,7.28
2018-07-24T01:42:55.853Z,6.92
2018-07-24T01:45:24.171Z,7.67
2018-07-24T01:47:52.525Z,7.50
2018-07-24T01:50:20.881Z,7.83
2018-07-24T01:52:49.236Z,7.72
2018-07-24T01:55:17.574Z,7.78
2018-07-24T01:57:45.908Z,6.95
2018-07-24T02:00:15.099Z,7.50
2018-07-24T02:02:43.454Z,7.45
2018-07-24T02:05:12.092Z,7.40
2018-07-24T02:07:40.574Z,7.50
2018-07-24T02:10:08.986Z,8.30
2018-07-24T02:12:37.460Z,8.23
2018-07-24T02:15:06.848Z,7.85
2018-07-24T02:17:35.316Z,8.03
2018-07-24T02:20:03.810Z,8.20
2018-07-24T02:22:32.191Z,8.60
2018-07-24T02:25:00.559Z,9.08
2018-07-24T02:27:28.953Z,8.80
2018-07-24T02:29:57.319Z,8.80
2018-07-24T02:32:25.692Z,8.30
2018-07-24T02:34:54.173Z,8.43
2018-07-24T02:37:22.582Z,8.60
2018-07-24T02:39:50.952Z,8.10
2018-07-24T02:42:19.320Z,8.60
2018-07-24T02:44:47.657Z,9.90
2018-07-24T02:47:16.042Z,9.35
2018-07-24T02:49:44.365Z,9.95
2018-07-24T02:52:12.688Z,10.20
2018-07-24T02:54:41.049Z,9.45
2018-07-24T02:57:09.425Z,9.55
2018-07-24T02:59:37.791Z,9.33
2018-07-24T03:02:06.621Z,10.13
2018-07-24T03:04:34.999Z,10.57
2018-07-24T03:07:03.513Z,10.90
2018-07-24T03:09:31.876Z,10.48
2018-07-24T03:12:00.385Z,10.98
2018-07-24T03:14:28.751Z,11.20
2018-07-24T03:16:57.110Z,10.20
2018-07-24T03:19:25.455Z,11.60
2018-07-24T03:21:53.789Z,11.57
2018-07-24T03:24:22.153Z,11.35
2018-07-24T03:26:50.469Z,11.80
2018-07-24T03:29:18.821Z,11.93
2018-07-24T03:31:47.392Z,10.70
2018-07-24T03:34:15.845Z,10.85
2018-07-24T03:36:44.207Z,10.72
2018-07-24T03:39:13.565Z,11.28
2018-07-24T03:41:42.255Z,11.38
2018-07-24T03:44:10.689Z,11.40
2018-07-24T03:46:39.040Z,10.70
2018-07-24T03:49:07.385Z,10.30
2018-07-24T03:51:35.697Z,11.13
2018-07-24T03:54:04.090Z,10.83
2018-07-24T03:56:32.436Z,11.13
2018-07-24T03:59:00.764Z,10.80
2018-07-24T04:01:29.122Z,11.05
2018-07-24T04:03:57.452Z,11.00
2018-07-24T04:06:25.787Z,11.15
2018-07-24T04:08:54.179Z,11.38
2018-07-24T04:11:22.506Z,11.53
2018-07-24T04:13:50.840Z,11.43
2018-07-24T04:16:19.351Z,11.78
2018-07-24T04:18:48.767Z,11.55
2018-07-24T04:21:18.355Z,10.82
2018-07-24T04:23:47.565Z,11.03
2018-07-24T04:26:15.984Z,10.45
2018-07-24T04:28:45.321Z,10.38
2018-07-24T04:31:14.490Z,10.55
2018-07-24T04:33:43.510Z,9.58
2018-07-24T04:36:11.845Z,9.78
2018-07-24T04:38:40.302Z,9.50
2018-07-24T04:41:08.728Z,8.70
2018-07-24T04:43:37.081Z,8.83
2018-07-24T04:46:05.487Z,8.50
2018-07-24T04:48:33.849Z,8.30
2018-07-24T04:51:02.494Z,8.08
2018-07-24T04:53:30.825Z,7.80
2018-07-24T04:55:59.339Z,7.72
2018-07-24T04:58:27.665Z,8.38
2018-07-24T05:00:56.215Z,8.05
2018-07-24T05:03:24.592Z,8.30
2018-07-24T05:05:52.925Z,7.83
2018-07-24T05:08:21.304Z,7.70
2018-07-24T05:10:49.691Z,7.30
2018-07-24T05:13:18.042Z,9.15
2018-07-24T05:15:46.413Z,8.33
2018-07-24T05:18:14.826Z,8.00
2018-07-24T05:20:43.239Z,8.20
2018-07-24T05:23:11.619Z,9.33
2018-07-24T05:25:40.079Z,8.05
2018-07-24T05:28:08.463Z,8.00
2018-07-24T05:30:36.905Z,8.13
2018-07-24T05:33:05.627Z,7.80
2018-07-24T05:35:33.983Z,7.50
2018-07-24T05:38:02.373Z,7.67
2018-07-24T05:40:30.756Z,7.30
2018-07-24T05:42:59.072Z,8.00
2018-07-24T05:45:27.404Z,7.58
2018-07-24T05:47:55.729Z,7.30
2018-07-24T05:50:24.126Z,7.28
2018-07-24T05:52:52.476Z,7.37
2018-07-24T05:55:20.845Z,7.33
2018-07-24T05:57:49.252Z,7.12
2018-07-24T06:00:17.722Z,7.22
2018-07-24T06:02:46.167Z,7.20
2018-07-24T06:05:14.510Z,8.45
2018-07-24T06:07:42.923Z,7.90
2018-07-24T06:10:11.295Z,8.08
2018-07-24T06:12:39.621Z,8.38
2018-07-24T06:15:08.704Z,8.50
2018-07-24T06:17:37.188Z,8.47
2018-07-24T06:20:07.294Z,8.15
2018-07-24T06:22:35.621Z,8.78
2018-07-24T06:25:04.189Z,8.53
2018-07-24T06:27:32.710Z,8.93
2018-07-24T06:30:01.100Z,8.37
2018-07-24T06:32:29.461Z,9.35
2018-07-24T06:34:57.860Z,9.45
2018-07-24T06:37:26.233Z,8.65
2018-07-24T06:39:54.676Z,9.13
2018-07-24T06:42:23.004Z,8.50
2018-07-24T06:44:51.340Z,9.50
2018-07-24T06:47:19.727Z,9.28
2018-07-24T06:49:48.084Z,8.30
2018-07-24T06:52:16.426Z,8.28
2018-07-24T06:54:44.772Z,7.90
2018-07-24T06:57:13.116Z,8.10
2018-07-24T06:59:41.508Z,7.80
2018-07-24T07:02:09.936Z,8.10
2018-07-24T07:04:38.295Z,8.00
2018-07-24T07:07:06.688Z,7.80
2018-07-24T07:09:35.045Z,8.13
2018-07-24T07:12:03.429Z,7.10
2018-07-24T07:14:31.769Z,7.50
2018-07-24T07:17:00.152Z,7.40
2018-07-24T07:19:28.539Z,7.30
2018-07-24T07:21:56.903Z,7.10
2018-07-24T07:24:25.284Z,6.97
2018-07-24T07:26:53.652Z,6.70
2018-07-24T07:29:22.084Z,7.78
2018-07-24T07:31:50.387Z,8.08
2018-07-24T07:34:18.740Z,6.30
2018-07-24T07:36:47.112Z,6.50
2018-07-24T07:39:15.545Z,6.50
2018-07-24T07:41:43.827Z,5.95
2018-07-24T07:44:12.188Z,5.60
2018-07-24T07:46:40.550Z,5.58
2018-07-24T07:49:08.898Z,5.95
2018-07-24T07:51:37.211Z,5.90
2018-07-24T07:54:05.645Z,5.47
2018-07-24T07:56:33.987Z,5.67
2018-07-24T07:59:02.372Z,6.00
2018-07-24T08:01:30.739Z,5.83
2018-07-24T08:03:59.089Z,5.20
2018-07-24T08:06:27.442Z,5.30
2018-07-24T08:08:55.967Z,4.78
2018-07-24T08:11:24.325Z,4.85
2018-07-24T08:13:52.632Z,4.60
2018-07-24T08:16:21.100Z,4.35
2018-07-24T08:18:49.435Z,4.30
2018-07-24T08:21:17.781Z,5.40
2018-07-24T08:23:46.160Z,4.70
2018-07-24T08:26:14.533Z,5.45
2018-07-24T08:28:42.833Z,5.05
2018-07-24T08:31:11.176Z,4.70
2018-07-24T08:33:39.722Z,4.57
2018-07-24T08:36:08.046Z,4.80
2018-07-24T08:38:36.395Z,5.30
2018-07-24T08:41:04.761Z,4.85
2018-07-24T08:43:33.072Z,4.87
2018-07-24T08:46:01.434Z,4.00
2018-07-24T08:48:29.772Z,3.67
2018-07-24T08:50:58.099Z,4.87
2018-07-24T08:53:26.673Z,5.53
2018-07-24T08:55:54.800Z,4.92
2018-07-24T08:58:23.175Z,5.10
2018-07-24T09:00:51.523Z,4.40
2018-07-24T09:03:19.949Z,4.20
2018-07-24T09:05:48.280Z,4.10
2018-07-24T09:08:16.704Z,4.30
2018-07-24T09:10:45.071Z,3.90
2018-07-24T09:13:13.416Z,4.05
2018-07-24T09:15:41.748Z,3.90
2018-07-24T09:18:10.105Z,3.40
2018-07-24T09:20:38.437Z,3.62
2018-07-24T09:23:06.845Z,3.62
2018-07-24T09:25:35.171Z,3.33
2018-07-24T09:28:03.507Z,3.60
2018-07-24T09:30:31.880Z,3.60
2018-07-24T09:33:00.221Z,3.60
2018-07-24T09:35:28.546Z,3.40
2018-07-24T09:37:56.883Z,5.60
2018-07-24T09:40:25.272Z,3.50
2018-07-24T09:42:53.619Z,4.03
2018-07-24T09:45:21.927Z,3.60
2018-07-24T09:47:50.273Z,3.70
2018-07-24T09:50:18.641Z,3.70
2018-07-24T09:52:47.019Z,4.20
2018-07-24T09:55:15.397Z,3.40
2018-07-24T09:57:43.753Z,3.50
2018-07-24T10:00:12.131Z,3.90
2018-07-24T10:02:40.516Z,3.50
2018-07-24T10:05:09.009Z,3.70
2018-07-24T10:07:37.573Z,12.40
2018-07-24T10:10:05.960Z,5.95
2018-07-24T10:12:34.361Z,3.50
2018-07-24T10:15:02.700Z,3.62
2018-07-24T10:17:31.032Z,3.50
2018-07-24T10:19:59.365Z,3.43
2018-07-24T10:22:27.756Z,8.68
2018-07-24T10:24:56.179Z,4.90
2018-07-24T10:27:24.517Z,7.00
2018-07-24T10:29:52.876Z,3.72
2018-07-24T10:32:21.204Z,3.75
2018-07-24T10:34:49.529Z,4.03
2018-07-24T10:37:17.913Z,3.70
2018-07-24T10:39:46.372Z,3.50
2018-07-24T10:42:14.827Z,3.77
2018-07-24T10:44:43.236Z,3.70
2018-07-24T10:47:11.694Z,3.50
2018-07-24T10:49:40.056Z,3.80
2018-07-24T10:52:08.364Z,3.70
2018-07-24T10:54:36.677Z,3.90
2018-07-24T10:57:05.017Z,4.30
2018-07-24T10:59:33.378Z,3.80
2018-07-24T11:02:02.180Z,3.50
2018-07-24T11:04:30.560Z,4.35
2018-07-24T11:06:58.944Z,3.52
2018-07-24T11:09:27.290Z,3.50
2018-07-24T11:11:55.627Z,3.70
2018-07-24T11:14:24.013Z,4.00
2018-07-24T11:16:52.348Z,11.48
2018-07-24T11:19:20.724Z,4.10
2018-07-24T11:21:49.250Z,3.70
2018-07-24T11:24:17.552Z,4.03
2018-07-24T11:26:45.848Z,3.90
2018-07-24T11:29:14.182Z,3.70
2018-07-24T11:31:42.472Z,3.70
2018-07-24T11:34:10.782Z,3.52
2018-07-24T11:36:39.101Z,3.55
2018-07-24T11:39:09.109Z,3.50
2018-07-24T11:41:37.433Z,3.50
2018-07-24T11:44:05.877Z,3.60
2018-07-24T11:46:34.128Z,4.00
2018-07-24T11:49:02.422Z,3.75
2018-07-24T11:51:30.805Z,3.50
2018-07-24T11:53:59.041Z,3.52
2018-07-24T11:56:27.493Z,16.10
2018-07-24T11:58:55.813Z,3.70
2018-07-24T12:01:24.109Z,4.30
2018-07-24T12:03:52.462Z,11.25
2018-07-24T12:06:20.806Z,3.70
2018-07-24T12:08:49.273Z,3.50
2018-07-24T12:11:17.738Z,3.70
2018-07-24T12:13:46.065Z,3.60
2018-07-24T12:16:14.421Z,3.30
2018-07-24T12:18:42.751Z,3.87
2018-07-24T12:21:11.077Z,3.58
2018-07-24T12:23:39.374Z,3.20
2018-07-24T12:26:07.710Z,3.40
2018-07-24T12:28:36.025Z,3.60
2018-07-24T12:31:04.356Z,3.65
2018-07-24T12:33:32.637Z,3.85
2018-07-24T12:36:01.009Z,3.40
2018-07-24T12:38:29.269Z,3.67
2018-07-24T12:40:57.583Z,3.27
2018-07-24T12:43:25.917Z,3.50
2018-07-24T12:45:54.216Z,3.37
2018-07-24T12:48:22.581Z,3.55
2018-07-24T12:50:50.908Z,3.63
2018-07-24T12:53:19.214Z,3.80
2018-07-24T12:55:47.523Z,3.77
2018-07-24T12:58:15.889Z,3.60
2018-07-24T13:00:44.223Z,3.60
2018-07-24T13:03:12.588Z,3.40
2018-07-24T13:05:40.932Z,3.22
2018-07-24T13:08:09.255Z,3.50
2018-07-24T13:10:37.592Z,3.20
2018-07-24T13:13:06.154Z,3.42
2018-07-24T13:15:34.492Z,6.70
2018-07-24T13:18:02.996Z,3.50
2018-07-24T13:20:31.329Z,3.45
2018-07-24T13:22:59.761Z,3.75
2018-07-24T13:25:28.099Z,3.33
2018-07-24T13:27:56.414Z,3.40
2018-07-24T13:30:24.799Z,3.40
2018-07-24T13:32:53.113Z,3.60
2018-07-24T13:35:21.437Z,3.70
2018-07-24T13:37:49.763Z,3.65
2018-07-24T13:40:18.120Z,3.60
2018-07-24T13:42:46.449Z,3.60
2018-07-24T13:45:14.800Z,3.67
2018-07-24T13:47:43.140Z,4.97
2018-07-24T13:50:11.499Z,3.55
2018-07-24T13:52:39.848Z,5.58
2018-07-24T13:55:08.192Z,4.20
2018-07-24T13:57:36.759Z,3.70
2018-07-24T14:00:05.737Z,3.55
2018-07-24T14:02:34.086Z,3.35
2018-07-24T14:05:02.422Z,3.50
2018-07-24T14:07:30.789Z,6.00
2018-07-24T14:09:59.291Z,3.75
2018-07-24T14:12:27.661Z,3.80
2018-07-24T14:14:55.983Z,3.70
2018-07-24T14:17:24.312Z,3.40
2018-07-24T14:19:52.637Z,3.90
2018-07-24T14:22:21.099Z,3.80
2018-07-24T14:24:49.439Z,3.72
2018-07-24T14:27:17.827Z,3.52
2018-07-24T14:29:46.128Z,3.47
2018-07-24T14:32:14.459Z,3.65
2018-07-24T14:34:42.809Z,3.90
2018-07-24T14:37:11.123Z,3.90
2018-07-24T14:39:39.475Z,3.52
2018-07-24T14:42:07.795Z,3.70
2018-07-24T14:44:36.166Z,3.53
2018-07-24T14:47:04.477Z,3.70
2018-07-24T14:49:32.792Z,4.10
2018-07-24T14:52:01.130Z,6.10
2018-07-24T14:54:29.464Z,5.65
2018-07-24T14:56:57.821Z,4.75
2018-07-24T14:59:26.190Z,6.03
2018-07-24T15:01:54.519Z,3.52
2018-07-24T15:04:22.800Z,4.00
2018-07-24T15:06:51.143Z,3.98
2018-07-24T15:09:19.530Z,3.80
2018-07-24T15:11:47.909Z,3.80
2018-07-24T15:14:16.227Z,3.40
2018-07-24T15:16:44.558Z,3.77
2018-07-24T15:19:12.857Z,3.50
2018-07-24T15:21:41.185Z,3.80
2018-07-24T15:24:09.490Z,3.60
2018-07-24T15:26:37.861Z,4.20
2018-07-24T15:29:06.221Z,3.60
2018-07-24T15:31:34.567Z,3.30
2018-07-24T15:34:02.935Z,3.80
2018-07-24T15:36:32.453Z,3.45
2018-07-24T15:39:00.837Z,3.70
2018-07-24T15:41:29.238Z,3.90
2018-07-24T15:43:57.558Z,3.70
2018-07-24T15:46:25.887Z,3.67
2018-07-24T15:48:54.206Z,3.72
2018-07-24T15:51:22.626Z,3.95
2018-07-24T15:53:50.936Z,4.00
2018-07-24T15:56:19.564Z,3.47
2018-07-24T15:58:47.853Z,3.60
2018-07-24T16:01:16.229Z,3.50
2018-07-24T16:03:44.574Z,3.50
2018-07-24T16:06:12.988Z,3.72
2018-07-24T16:08:41.277Z,3.80
2018-07-24T16:11:09.613Z,3.85
2018-07-24T16:13:37.969Z,3.77
2018-07-24T16:16:06.327Z,4.10
2018-07-24T16:18:34.647Z,3.60
2018-07-24T16:21:02.988Z,3.90
2018-07-24T16:23:31.322Z,4.22
2018-07-24T16:25:59.621Z,3.60
2018-07-24T16:28:28.310Z,4.70
2018-07-24T16:30:56.668Z,10.30
2018-07-24T16:33:24.997Z,3.65
2018-07-24T16:35:53.337Z,3.70
2018-07-24T16:38:21.700Z,3.87
2018-07-24T16:40:50.060Z,3.75
2018-07-24T16:43:18.577Z,3.75
2018-07-24T16:45:46.883Z,3.62
2018-07-24T16:48:15.243Z,4.25
2018-07-24T16:50:43.593Z,3.80
2018-07-24T16:53:11.894Z,3.80
2018-07-24T16:55:40.257Z,3.90
2018-07-24T16:58:08.610Z,3.50
2018-07-24T17:00:36.975Z,3.20
2018-07-24T17:03:05.338Z,3.30
2018-07-24T17:05:33.632Z,3.80
2018-07-24T17:08:01.969Z,4.10
2018-07-24T17:10:30.559Z,4.20
2018-07-24T17:12:58.885Z,3.90
2018-07-24T17:15:27.208Z,3.45
2018-07-24T17:17:55.571Z,3.62
2018-07-24T17:20:23.908Z,4.03
2018-07-24T17:22:52.238Z,4.00
2018-07-24T17:25:20.591Z,3.87
2018-07-24T17:27:49.025Z,3.87
2018-07-24T17:30:17.279Z,3.80
2018-07-24T17:32:45.703Z,6.05
2018-07-24T17:35:14.057Z,3.58
2018-07-24T17:37:42.514Z,4.00
2018-07-24T17:40:10.863Z,3.90
2018-07-24T17:42:39.235Z,3.77
2018-07-24T17:45:07.591Z,3.80
2018-07-24T17:47:35.878Z,3.40
2018-07-24T17:50:04.255Z,3.60
2018-07-24T17:52:32.593Z,3.90
2018-07-24T17:55:00.920Z,3.87
2018-07-24T17:57:29.218Z,5.12
2018-07-24T17:59:57.584Z,3.80
2018-07-24T18:02:25.920Z,6.97
2018-07-24T18:04:54.269Z,5.80
2018-07-24T18:07:22.666Z,7.97
2018-07-24T18:09:51.011Z,3.90
2018-07-24T18:12:19.375Z,3.90
2018-07-24T18:14:47.773Z,4.30
2018-07-24T18:17:16.099Z,4.00
2018-07-24T18:19:44.493Z,4.03
2018-07-24T18:22:12.837Z,4.28
2018-07-24T18:24:41.556Z,4.10
2018-07-24T18:27:10.936Z,3.90
2018-07-24T18:29:39.311Z,3.97
2018-07-24T18:32:07.689Z,4.60
2018-07-24T18:34:36.070Z,4.15
2018-07-24T18:37:04.420Z,4.80
2018-07-24T18:39:32.981Z,4.40
2018-07-24T18:42:01.337Z,7.22
2018-07-24T18:44:29.684Z,4.70
2018-07-24T18:46:58.045Z,4.00
2018-07-24T18:49:26.652Z,4.08
2018-07-24T18:51:55.132Z,4.08
2018-07-24T18:54:23.526Z,4.15
2018-07-24T18:56:52.245Z,4.58
2018-07-24T18:59:20.681Z,4.50
2018-07-24T19:01:49.052Z,4.62
2018-07-24T19:04:17.401Z,4.72
2018-07-24T19:06:45.741Z,5.40
2018-07-24T19:09:14.104Z,4.50
2018-07-24T19:11:42.450Z,4.90
2018-07-24T19:14:10.789Z,4.40
2018-07-24T19:16:39.174Z,4.40
2018-07-24T19:19:07.521Z,4.30
2018-07-24T19:21:35.974Z,4.58
2018-07-24T19:24:04.367Z,4.70
2018-07-24T19:26:32.750Z,4.10
2018-07-24T19:29:01.090Z,4.20
2018-07-24T19:31:29.423Z,4.50
2018-07-24T19:33:57.810Z,4.10
2018-07-24T19:36:26.270Z,4.70
2018-07-24T19:38:54.657Z,4.60
2018-07-24T19:41:23.001Z,4.23
2018-07-24T19:43:51.475Z,4.30
2018-07-24T19:46:19.813Z,4.25
2018-07-24T19:48:48.191Z,4.15
2018-07-24T19:51:16.530Z,4.33
2018-07-24T19:53:44.882Z,4.20
2018-07-24T19:56:13.177Z,4.55
2018-07-24T19:58:41.557Z,4.30
2018-07-24T20:01:10.037Z,4.10
2018-07-24T20:03:38.396Z,4.10
2018-07-24T20:06:07.328Z,4.33
2018-07-24T20:08:35.716Z,4.50
2018-07-24T20:11:04.131Z,4.30
2018-07-24T20:13:32.483Z,4.90
2018-07-24T20:16:00.823Z,5.22
2018-07-24T20:18:29.195Z,5.25
2018-07-24T20:20:57.655Z,4.90
2018-07-24T20:23:26.133Z,5.40
2018-07-24T20:25:54.649Z,5.10
2018-07-24T20:28:23.085Z,5.05
2018-07-24T20:30:51.469Z,5.35
2018-07-24T20:33:19.820Z,5.40
2018-07-24T20:35:48.258Z,6.10
2018-07-24T20:38:16.657Z,6.12
2018-07-24T20:40:45.066Z,9.00
2018-07-24T20:43:13.704Z,12.00
2018-07-24T20:45:42.184Z,13.45
2018-07-24T20:48:10.567Z,14.93
2018-07-24T20:50:38.919Z,13.08
2018-07-24T20:53:07.333Z,12.60
2018-07-24T20:55:35.756Z,9.80
2018-07-24T20:58:04.152Z,9.10
2018-07-24T21:00:32.492Z,10.27
2018-07-24T21:03:00.832Z,10.60
2018-07-24T21:05:29.229Z,8.73
2018-07-24T21:07:57.879Z,8.70
2018-07-24T21:10:26.207Z,7.92
2018-07-24T21:12:54.594Z,6.33
2018-07-24T21:15:22.934Z,5.72
2018-07-24T21:17:51.292Z,6.65
2018-07-24T21:20:19.707Z,6.30
2018-07-24T21:22:48.095Z,6.22
2018-07-24T21:25:16.480Z,5.80
2018-07-24T21:27:44.843Z,5.55
2018-07-24T21:30:13.232Z,5.00
2018-07-24T21:32:41.571Z,5.35
2018-07-24T21:35:10.007Z,5.47
2018-07-24T21:37:38.363Z,4.93
2018-07-24T21:40:06.751Z,5.50
2018-07-24T21:42:35.137Z,5.25
2018-07-24T21:45:03.442Z,5.30
2018-07-24T21:47:31.773Z,5.30
2018-07-24T21:50:00.112Z,5.50
2018-07-24T21:52:28.498Z,5.90
2018-07-24T21:54:56.804Z,5.67
2018-07-24T21:57:25.220Z,5.17
2018-07-24T21:59:53.685Z,5.33
2018-07-24T22:02:22.045Z,5.72
2018-07-24T22:04:50.424Z,6.03
2018-07-24T22:07:18.831Z,5.50
2018-07-24T22:09:47.188Z,6.20
2018-07-24T22:12:15.575Z,5.53
2018-07-24T22:14:43.892Z,6.10
2018-07-24T22:17:12.346Z,5.65
2018-07-24T22:19:40.752Z,6.25
2018-07-24T22:22:09.139Z,6.10
2018-07-24T22:24:37.542Z,5.50
2018-07-24T22:27:06.116Z,5.67
2018-07-24T22:29:34.461Z,6.00
2018-07-24T22:32:02.932Z,5.37
2018-07-24T22:34:31.273Z,5.90
2018-07-24T22:36:59.655Z,5.78
2018-07-24T22:39:27.991Z,5.53
2018-07-24T22:41:56.337Z,5.25
2018-07-24T22:44:24.710Z,5.17
2018-07-24T22:46:53.044Z,5.50
2018-07-24T22:49:21.394Z,5.10
2018-07-24T22:51:49.802Z,5.10
2018-07-24T22:54:18.138Z,5.20
2018-07-24T22:56:46.558Z,4.92
2018-07-24T22:59:14.870Z,4.80
2018-07-24T23:01:43.239Z,5.00
2018-07-24T23:04:11.605Z,5.10
2018-07-24T23:06:39.962Z,5.58
2018-07-24T23:09:09.757Z,5.70
2018-07-24T23:11:38.294Z,5.30
2018-07-24T23:14:06.623Z,4.90
2018-07-24T23:16:34.965Z,4.70
2018-07-24T23:19:03.285Z,5.35
2018-07-24T23:21:31.593Z,5.30
2018-07-24T23:23:59.915Z,5.20
2018-07-24T23:26:28.260Z,5.60
2018-07-24T23:28:56.609Z,5.20
2018-07-24T23:31:24.996Z,5.00
2018-07-24T23:33:53.336Z,5.20
2018-07-24T23:36:21.670Z,4.95
2018-07-24T23:38:49.985Z,5.03
2018-07-24T23:41:18.371Z,5.05
2018-07-24T23:43:46.818Z,5.50
2018-07-24T23:46:15.451Z,5.20
2018-07-24T23:48:43.794Z,5.20
2018-07-24T23:51:12.113Z,5.40
2018-07-24T23:53:40.476Z,4.80
2018-07-24T23:56:08.867Z,4.40
2018-07-24T23:58:37.233Z,4.42
